Date,TemperatureHighF,TemperatureAvgF,TemperatureLowF,DewpointHighF,DewpointAvgF,DewpointLowF,HumidityHigh,HumidityAvg,HumidityLow,PressureMaxIn,PressureMinIn,WindSpeedMaxMPH,WindSpeedAvgMPH,GustSpeedMaxMPH,PrecipitationSumIn
2013-1-1,36.7,32.8,24.3,36.0,30.9,20.0,97,92,84,30.24,30.04,12,2,12,0.00
2013-1-2,34.9,24.7,17.7,22.0,18.2,15.0,93,78,45,30.32,30.22,3,1,8,0.00
2013-1-3,41.8,25.4,15.0,31.0,21.4,13.0,96,86,60,30.45,30.27,5,1,10,0.00
2013-1-4,44.3,28.0,17.6,32.0,23.2,16.0,97,84,55,30.48,30.40,12,2,17,0.00
2013-1-5,43.1,32.4,19.2,34.0,27.4,18.0,97,82,66,30.41,30.23,6,1,12,0.00
2013-1-6,43.8,33.2,19.0,37.0,29.2,17.0,96,85,69,30.42,30.17,10,2,13,0.00
2013-1-7,44.3,27.0,15.0,30.0,21.7,13.0,96,82,53,30.50,30.24,6,1,10,0.01
2013-1-8,55.0,35.5,19.5,37.0,29.1,18.0,97,80,47,30.31,30.19,9,1,10,0.00
2013-1-9,55.7,47.2,36.8,49.0,43.3,35.0,97,87,65,30.43,30.24,7,1,13,0.03
2013-1-10,65.3,55.3,44.2,62.0,53.2,39.0,97,92,68,30.42,29.86,10,3,25,0.90
2013-1-11,62.6,55.9,42.7,57.0,51.7,42.0,98,86,68,30.00,29.89,12,3,20,0.06
2013-1-12,69.2,64.5,57.5,65.0,62.4,55.0,98,92,85,29.96,29.69,17,3,23,0.37
2013-1-13,62.2,35.5,25.1,59.0,33.8,22.0,97,93,86,30.32,29.72,10,4,19,3.06
2013-1-14,28.3,25.3,21.7,23.0,21.2,18.0,90,84,78,30.46,30.32,7,3,13,0.00
2013-1-15,31.9,26.9,22.0,28.0,23.9,20.0,94,88,73,30.35,30.11,11,2,14,0.00
2013-1-16,32.4,30.2,27.8,29.0,27.5,26.0,96,89,83,30.18,30.07,3,1,7,0.00
2013-1-17,46.4,32.8,23.5,37.0,28.5,22.0,96,85,67,30.50,30.12,9,2,17,0.05
2013-1-18,47.5,33.4,19.6,32.0,25.8,18.0,97,76,50,30.58,30.32,7,2,11,0.00
2013-1-19,56.2,43.5,32.0,36.0,31.6,26.0,79,64,46,30.32,30.08,15,4,20,0.00
2013-1-20,45.8,35.4,24.7,34.0,25.5,19.0,96,70,36,30.30,30.14,8,1,11,0.00
2013-1-21,35.6,27.6,21.9,21.0,17.0,8.0,87,66,46,30.37,30.24,11,2,16,0.00
2013-1-22,27.2,22.3,17.2,13.0,5.4,1.0,81,50,36,30.49,30.37,5,1,9,0.00
2013-1-23,46.3,28.6,13.9,32.0,20.8,11.0,96,75,50,30.40,30.16,10,2,13,0.00
2013-1-24,34.1,29.2,22.2,29.0,15.2,9.0,96,57,40,30.56,30.27,11,4,16,0.00
2013-1-25,38.1,29.9,22.7,32.0,24.5,10.0,95,82,42,30.26,30.13,5,1,10,0.12
2013-1-26,46.3,32.0,21.6,31.0,24.9,20.0,97,78,47,30.38,30.26,7,1,9,0.00
2013-1-27,51.3,38.6,24.8,45.0,35.9,22.0,97,90,80,30.34,30.11,7,1,13,0.10
2013-1-28,62.2,57.2,51.9,59.0,53.0,45.0,94,86,71,30.13,30.03,10,4,16,0.12
2013-1-29,70.3,63.4,53.7,63.0,58.5,52.0,94,84,76,30.03,29.42,17,6,26,0.24
2013-1-30,56.4,46.6,33.1,52.0,42.0,24.0,97,84,69,29.95,29.44,18,7,31,1.12
2013-1-31,42.6,33.7,21.9,33.0,25.3,14.0,93,72,58,30.35,29.95,15,7,22,0.02
2013-2-1,27.3,21.6,12.8,18.0,12.4,6.0,81,68,51,30.56,30.35,12,2,13,0.01
2013-2-2,40.5,32.5,23.2,33.0,25.3,18.0,94,75,57,30.34,30.11,14,3,17,0.00
2013-2-3,45.5,35.1,23.4,33.0,25.8,21.0,93,71,53,30.18,30.11,13,3,17,0.00
2013-2-4,48.9,38.8,23.4,41.0,33.0,22.0,95,81,49,30.11,29.90,15,3,17,0.07
2013-2-5,53.7,40.1,29.3,45.0,36.4,28.0,97,87,57,30.09,29.93,7,1,13,0.00
2013-2-6,52.5,39.6,25.0,35.0,31.6,24.0,97,75,43,30.27,30.09,8,1,10,0.00
2013-2-7,65.0,50.2,31.4,54.0,43.0,29.0,96,77,56,30.10,29.86,10,2,13,0.43
2013-2-8,49.2,40.1,33.6,47.0,34.7,28.0,94,81,67,30.37,29.93,11,4,15,0.01
2013-2-9,49.6,39.1,31.4,36.0,30.5,27.0,84,72,50,30.39,30.07,8,2,13,0.00
2013-2-10,55.5,51.6,42.6,53.0,45.5,34.0,94,80,57,30.07,29.73,16,4,24,0.35
2013-2-11,53.5,43.5,28.8,52.0,34.2,28.0,95,71,50,30.16,29.87,12,4,17,0.00
2013-2-12,49.2,38.8,23.9,38.0,30.3,23.0,97,74,49,30.17,29.86,8,1,10,0.01
2013-2-13,45.3,39.4,36.3,39.0,36.1,35.0,94,88,74,29.97,29.82,7,2,14,0.16
2013-2-14,58.2,44.4,34.7,42.0,37.7,33.0,95,79,53,30.03,29.93,14,3,16,0.00
2013-2-15,50.1,37.8,25.1,37.0,28.1,18.0,95,70,44,30.23,30.04,10,2,16,0.00
2013-2-16,39.7,28.1,18.1,22.0,18.5,12.0,96,71,36,30.25,30.19,8,2,16,0.00
2013-2-17,47.4,31.8,15.6,29.0,21.5,14.0,94,69,39,30.28,30.08,9,1,12,0.00
2013-2-18,60.0,48.4,38.5,48.0,38.4,25.0,94,70,40,30.08,29.72,22,6,29,0.74
2013-2-19,44.3,37.0,26.0,41.0,26.4,16.0,91,68,42,30.29,29.87,21,6,24,0.01
2013-2-20,32.5,27.4,20.2,20.0,16.8,14.0,88,65,52,30.40,30.28,6,1,11,0.00
2013-2-21,37.4,31.2,25.1,36.0,25.1,19.0,96,79,52,30.29,29.84,15,4,22,0.95
2013-2-22,41.6,39.0,33.4,40.0,36.0,29.0,97,89,82,30.08,29.83,9,4,18,0.01
2013-2-23,46.2,33.7,24.2,32.0,27.2,23.0,97,79,49,30.08,29.98,5,1,13,0.00
2013-2-24,51.5,35.6,20.6,30.0,25.7,19.0,97,71,39,30.16,30.01,6,2,11,0.00
2013-2-25,58.6,46.1,28.9,43.0,29.7,26.0,91,57,31,30.04,29.45,16,5,21,0.22
2013-2-26,50.0,44.5,38.4,48.0,41.3,35.0,96,88,78,29.69,29.34,14,6,21,0.40
2013-2-27,40.4,37.3,34.4,35.0,33.0,31.0,89,84,71,29.91,29.70,15,8,21,0.02
2013-2-28,40.2,35.4,33.0,33.0,30.9,28.0,91,83,74,30.10,29.91,10,4,14,0.01
2013-3-1,38.9,34.2,31.5,36.0,32.2,29.0,95,92,87,30.13,30.05,7,2,12,0.08
2013-3-2,34.2,31.2,29.6,30.0,26.7,20.0,94,84,65,30.23,30.11,11,3,15,0.03
2013-3-3,42.7,33.3,20.3,30.0,23.0,18.0,93,68,43,30.22,30.10,8,1,11,0.00
2013-3-4,58.4,45.9,35.1,44.0,31.2,24.0,92,58,38,30.12,29.79,8,2,14,0.04
2013-3-5,46.6,40.4,33.2,46.0,36.5,23.0,97,86,65,30.09,29.75,13,4,24,0.26
2013-3-6,43.2,36.0,26.6,30.0,27.3,24.0,91,71,57,30.34,30.09,12,4,21,0.00
2013-3-7,45.8,33.6,23.5,30.0,27.0,22.0,96,79,54,30.43,30.33,6,1,10,0.00
2013-3-8,55.1,39.7,23.5,34.0,28.5,22.0,97,68,36,30.45,30.25,10,2,12,0.00
2013-3-9,68.0,52.2,41.3,38.0,33.7,29.0,67,51,30,30.24,29.94,9,2,14,0.00
2013-3-10,65.7,57.4,49.5,54.0,45.1,37.0,97,67,47,29.95,29.71,17,4,23,0.49
2013-3-11,51.7,41.9,37.2,50.0,37.4,31.0,95,84,76,30.02,29.74,17,6,20,0.01
2013-3-12,52.6,40.8,24.7,34.0,29.8,24.0,97,68,44,30.19,30.02,12,3,16,0.00
2013-3-13,46.1,37.1,23.9,28.0,24.4,21.0,91,62,43,30.43,30.19,11,4,18,0.01
2013-3-14,47.5,34.0,19.5,30.0,24.4,18.0,96,71,45,30.44,30.15,6,1,9,0.00
2013-3-15,74.1,52.9,28.7,51.0,40.6,27.0,96,67,42,30.14,29.79,9,3,16,0.00
2013-3-16,72.9,60.6,44.6,54.0,47.4,38.0,79,62,50,29.96,29.75,15,5,22,0.00
2013-3-17,44.6,42.0,38.6,43.0,39.8,37.0,96,92,80,30.04,29.70,12,4,14,0.45
2013-3-18,50.9,44.5,31.8,49.0,42.2,31.0,97,92,77,29.98,29.65,10,3,17,0.23
2013-3-19,53.6,40.5,27.9,34.0,26.6,14.0,97,65,22,30.21,30.01,7,1,11,0.00
2013-3-20,47.0,35.5,24.6,35.0,26.1,17.0,97,71,47,30.22,30.09,13,3,17,0.00
2013-3-21,43.7,31.7,17.3,23.0,18.7,16.0,96,62,35,30.13,29.98,8,1,13,0.00
2013-3-22,42.8,38.1,34.1,28.0,23.8,20.0,63,57,49,30.04,29.96,7,2,9,0.00
2013-3-23,54.9,46.3,39.7,44.0,34.4,27.0,95,65,49,30.00,29.72,9,2,19,0.09
2013-3-24,46.6,40.3,33.3,45.0,38.0,30.0,97,91,84,29.79,29.46,19,6,27,0.11
2013-3-25,39.2,34.3,32.3,32.0,29.2,27.0,93,82,68,30.18,29.79,17,8,24,0.01
2013-3-26,43.7,35.5,26.5,36.0,29.6,25.0,94,80,58,30.37,30.18,7,2,13,0.06
2013-3-27,52.2,37.1,20.3,34.0,27.6,19.0,97,72,41,30.43,30.32,9,1,10,0.00
2013-3-28,61.2,48.1,36.4,40.0,35.2,32.0,91,64,38,30.38,30.25,6,1,8,0.00
2013-3-29,58.0,49.3,40.9,49.0,44.5,37.0,94,84,64,30.28,30.17,8,1,9,0.25
2013-3-30,55.7,47.5,38.5,49.0,45.3,37.0,98,92,74,30.20,29.92,7,1,9,0.32
2013-3-31,61.7,52.4,40.9,54.0,49.1,40.0,98,89,66,29.95,29.86,8,1,9,0.02
2013-4-1,58.7,46.5,34.1,45.0,35.3,28.0,98,68,43,30.20,29.91,10,2,13,0.00
2013-4-2,47.7,40.8,31.3,32.0,26.0,19.0,89,58,33,30.32,30.20,10,2,12,0.00
2013-4-3,53.3,42.1,27.8,28.0,24.6,21.0,91,54,30,30.35,30.19,12,2,19,0.00
2013-4-4,50.4,44.5,40.5,42.0,33.7,24.0,91,67,44,30.19,30.01,5,1,8,0.06
2013-4-5,70.9,49.4,29.0,45.0,36.6,28.0,97,68,29,30.15,30.05,10,1,12,0.00
2013-4-6,73.4,57.0,36.6,47.0,39.8,35.0,97,59,30,30.09,29.88,12,3,17,0.00
2013-4-7,72.6,63.3,52.1,58.0,51.3,43.0,91,66,54,29.98,29.91,11,4,16,0.00
2013-4-8,74.2,64.8,53.6,59.0,54.9,50.0,89,71,56,29.94,29.86,14,3,21,0.00
2013-4-9,78.5,67.7,52.9,65.0,60.4,51.0,95,78,61,30.01,29.86,10,2,18,0.00
2013-4-10,83.8,75.6,67.4,67.0,64.2,61.0,89,69,54,29.93,29.67,13,5,19,0.07
2013-4-11,67.1,56.2,45.4,65.0,54.5,41.0,97,94,85,29.75,29.62,20,4,24,1.72
2013-4-12,59.4,47.6,33.6,44.0,39.2,33.0,97,74,53,30.04,29.77,19,4,24,0.00
2013-4-13,66.2,49.4,31.1,49.0,39.1,30.0,96,71,41,30.11,29.96,7,1,10,0.00
2013-4-14,74.5,58.6,40.8,52.0,46.5,40.0,97,69,40,29.96,29.76,13,2,21,0.00
2013-4-15,79.6,69.1,54.2,63.0,57.6,51.0,91,68,49,29.93,29.82,8,2,15,0.00
2013-4-16,82.4,71.6,65.6,72.0,66.0,59.0,96,83,67,30.04,29.89,8,2,13,0.13
2013-4-17,83.5,73.5,59.4,71.0,65.7,59.0,98,78,59,30.07,29.83,9,2,17,0.00
2013-4-18,80.9,72.1,45.9,67.0,63.2,44.0,95,75,56,29.83,29.59,15,5,24,1.56
2013-4-19,48.9,43.1,34.2,44.0,36.4,33.0,95,78,60,30.11,29.72,18,5,20,0.03
2013-4-20,63.5,47.0,29.6,46.0,35.3,29.0,97,69,33,30.32,30.11,6,1,12,0.00
2013-4-21,65.6,50.3,34.7,45.0,36.4,30.0,94,65,28,30.41,30.24,11,2,16,0.00
2013-4-22,73.5,55.5,36.6,52.0,44.3,35.0,97,71,38,30.27,30.04,9,1,13,0.00
2013-4-23,73.0,62.9,49.5,62.0,54.9,47.0,93,76,62,30.08,29.86,11,3,17,0.00
2013-4-24,66.3,45.3,33.6,57.0,40.9,32.0,95,85,63,30.30,29.86,9,2,16,0.38
2013-4-25,67.1,48.2,29.1,46.0,38.4,28.0,97,74,38,30.38,30.29,6,1,12,0.00
2013-4-26,51.6,47.6,40.0,50.0,45.6,39.0,97,93,78,30.44,30.26,6,0,13,0.50
2013-4-27,60.1,54.4,48.9,58.0,53.4,48.0,98,96,91,30.31,29.89,6,1,10,0.71
2013-4-28,61.1,56.5,48.1,58.0,54.2,47.0,98,92,80,29.96,29.88,7,2,11,0.00
2013-4-29,75.9,59.0,42.4,60.0,52.2,42.0,98,80,54,30.01,29.87,6,1,11,0.00
2013-4-30,83.6,64.9,45.3,61.0,53.8,45.0,98,72,37,29.98,29.89,8,1,10,0.00
2013-5-1,82.9,66.1,50.1,70.0,59.4,49.0,98,81,51,30.07,29.98,6,1,10,0.03
2013-5-2,73.8,64.1,52.7,63.0,58.2,52.0,98,83,60,30.14,30.02,9,0,9,0.33
2013-5-3,72.5,58.7,42.4,61.0,54.9,41.0,97,88,63,30.02,29.76,13,2,16,0.78
2013-5-4,56.5,46.2,40.5,43.0,40.8,39.0,97,83,55,29.97,29.87,6,1,10,0.25
2013-5-5,60.4,51.2,40.4,52.0,47.7,39.0,97,88,72,29.95,29.83,4,1,8,0.00
2013-5-6,66.3,56.7,52.5,58.0,54.1,51.0,96,91,72,29.93,29.82,8,1,14,0.36
2013-5-7,75.0,60.2,47.6,61.0,55.0,47.0,98,85,56,30.01,29.91,5,0,8,0.00
2013-5-8,82.8,66.1,48.8,63.0,55.8,48.0,98,74,39,30.04,29.96,5,1,10,0.00
2013-5-9,80.6,69.1,55.1,64.0,60.2,54.0,97,76,51,30.04,29.90,10,1,16,0.00
2013-5-10,76.8,66.3,60.8,67.0,62.4,58.0,97,88,66,29.95,29.82,6,1,12,0.23
2013-5-11,72.7,61.4,52.4,57.0,51.6,39.0,97,73,48,30.11,29.95,5,1,14,0.01
2013-5-12,65.8,52.5,38.3,45.0,37.7,30.0,97,62,29,30.21,30.12,7,1,12,0.00
2013-5-13,73.9,54.7,34.9,49.0,40.2,34.0,98,65,27,30.26,30.13,7,1,9,0.00
2013-5-14,85.2,69.0,46.7,61.0,55.4,45.0,95,65,41,30.12,29.91,10,2,15,0.00
2013-5-15,84.8,73.1,62.1,62.0,57.9,54.0,83,61,41,30.03,29.91,12,2,18,0.00
2013-5-16,82.0,71.9,62.1,67.0,61.0,55.0,92,69,51,29.98,29.89,8,1,13,0.00
2013-5-17,72.8,66.3,61.9,67.0,64.0,60.0,97,92,82,29.98,29.91,8,1,11,0.36
2013-5-18,84.2,71.6,65.4,71.0,66.7,65.0,97,86,56,29.99,29.90,2,0,8,0.00
2013-5-19,88.6,76.9,64.9,75.0,69.2,64.0,98,79,52,29.92,29.82,7,1,16,0.00
2013-5-20,87.6,78.1,69.4,73.0,69.8,67.0,93,77,56,29.93,29.79,8,2,18,0.00
2013-5-21,78.4,69.3,64.4,70.0,65.7,63.0,96,89,70,29.91,29.77,15,2,33,1.25
2013-5-22,78.2,68.9,62.0,65.0,62.8,60.0,97,82,56,29.84,29.72,12,2,16,0.12
2013-5-23,74.8,66.2,55.3,62.0,57.4,50.0,96,74,55,30.15,29.84,12,2,16,0.00
2013-5-24,71.5,58.3,46.2,51.0,47.0,41.0,94,69,35,30.35,30.15,5,1,13,0.00
2013-5-25,77.7,60.4,42.6,61.0,50.6,42.0,97,74,40,30.34,30.14,5,0,8,0.00
2013-5-26,84.5,68.8,53.2,65.0,58.3,52.0,97,73,41,30.19,30.07,5,0,8,0.00
2013-5-27,83.8,72.1,55.5,68.0,60.6,54.0,97,70,49,30.07,29.91,8,2,17,0.00
2013-5-28,87.4,77.5,69.8,70.0,64.9,58.0,84,66,46,30.01,29.92,7,2,16,0.00
2013-5-29,87.7,75.6,60.2,70.0,63.3,57.0,91,67,46,30.05,29.91,5,1,15,0.00
2013-5-30,85.7,77.3,68.0,72.0,68.1,66.0,96,74,57,30.01,29.88,12,2,33,0.17
2013-5-31,81.4,73.9,66.7,75.0,70.0,65.0,97,87,77,29.98,29.83,10,2,17,0.24
2013-6-1,77.6,68.3,63.7,72.0,65.7,63.0,97,92,79,29.96,29.77,11,1,18,1.42
2013-6-2,78.3,69.6,62.6,65.0,62.9,60.0,97,81,57,29.96,29.89,4,1,9,0.00
2013-6-3,77.2,65.0,56.2,62.0,58.1,55.0,98,80,51,30.05,29.95,6,0,9,0.00
2013-6-4,80.2,65.8,51.4,65.0,58.5,50.0,98,79,52,30.07,29.95,4,0,8,0.00
2013-6-5,88.3,74.3,61.7,71.0,65.3,60.0,96,76,45,29.97,29.79,3,0,6,0.05
2013-6-6,85.0,73.4,67.1,69.0,66.2,63.0,98,80,51,29.81,29.74,6,0,9,0.58
2013-6-7,79.7,70.5,60.9,65.0,62.0,59.0,93,76,54,29.87,29.76,6,1,12,0.00
2013-6-8,83.3,69.0,56.0,64.0,58.8,54.0,97,74,38,29.98,29.86,6,0,12,0.00
2013-6-9,79.6,67.9,58.9,73.0,65.4,58.0,98,92,77,29.99,29.81,2,0,12,0.14
2013-6-10,86.0,71.8,64.0,70.0,65.9,63.0,97,83,50,29.91,29.81,9,1,14,0.10
2013-6-11,95.3,77.5,59.8,76.0,68.7,59.0,98,77,47,29.99,29.89,6,1,12,0.00
2013-6-12,94.7,84.2,70.5,77.0,73.1,68.0,95,71,45,30.00,29.81,9,2,15,0.00
2013-6-13,84.1,78.6,64.0,73.0,68.5,62.0,93,72,58,29.94,29.78,11,2,19,0.00
2013-6-14,84.5,70.4,57.0,66.0,60.5,56.0,98,74,44,30.05,29.94,8,1,11,0.00
2013-6-15,89.0,73.7,58.9,71.0,63.6,58.0,97,74,42,30.09,29.95,6,1,9,0.00
2013-6-16,88.6,76.7,67.1,75.0,69.2,65.0,96,79,54,30.02,29.91,6,1,12,0.00
2013-6-17,87.3,73.1,66.5,75.0,69.6,65.0,97,89,63,29.93,29.86,4,0,20,0.50
2013-6-18,86.8,73.8,65.1,72.0,67.1,64.0,97,81,54,29.98,29.82,4,0,10,0.07
2013-6-19,88.6,74.1,63.3,71.0,67.2,62.0,97,81,46,30.04,29.94,7,0,8,0.07
2013-6-20,87.5,76.2,64.8,75.0,69.4,64.0,98,81,55,30.11,30.03,3,0,6,0.01
2013-6-21,90.8,78.2,66.9,74.0,70.0,66.0,98,78,50,30.14,30.05,6,1,10,0.00
2013-6-22,90.7,77.8,66.9,74.0,69.6,65.0,97,77,50,30.13,30.02,5,1,10,0.00
2013-6-23,90.2,78.0,68.4,72.0,68.6,65.0,95,75,50,30.09,29.98,5,1,10,0.00
2013-6-24,91.3,78.6,70.9,75.0,72.0,69.0,95,81,52,30.10,29.99,6,1,11,0.00
2013-6-25,91.6,82.4,73.4,76.0,73.3,71.0,95,75,55,30.02,29.87,8,1,13,0.00
2013-6-26,92.4,82.0,71.8,76.0,72.3,69.0,93,74,52,29.93,29.73,14,2,17,0.70
2013-6-27,97.7,81.7,70.7,77.0,72.1,68.0,97,76,40,29.85,29.78,8,1,12,0.09
2013-6-28,94.2,79.1,67.6,73.0,68.2,62.0,97,73,36,29.82,29.65,6,1,11,0.00
2013-6-29,88.2,74.3,63.5,65.0,62.1,60.0,91,68,41,29.70,29.61,9,2,19,0.02
2013-6-30,73.8,65.8,59.7,69.0,63.6,59.0,97,92,80,29.82,29.68,2,0,7,0.25
2013-7-1,74.5,67.5,64.1,67.0,64.7,63.0,98,91,75,29.89,29.79,3,0,14,0.02
2013-7-2,77.1,68.0,60.7,66.0,63.6,59.0,97,86,65,30.02,29.86,7,1,13,0.01
2013-7-3,81.4,68.4,58.8,68.0,63.0,57.0,98,84,58,30.10,30.01,3,0,7,0.00
2013-7-4,80.6,70.7,60.1,72.0,66.3,59.0,98,86,71,30.07,29.99,8,1,11,0.00
2013-7-5,80.9,73.2,68.3,72.0,68.3,66.0,95,85,68,30.08,29.99,3,0,8,0.00
2013-7-6,86.4,73.4,64.0,73.0,68.4,63.0,96,85,62,30.08,29.95,5,0,16,0.06
2013-7-7,90.4,74.8,62.2,74.0,68.5,61.0,98,83,49,30.08,30.01,6,0,8,0.00
2013-7-8,91.5,76.7,64.6,76.0,70.5,64.0,98,83,53,30.12,30.03,5,1,9,0.01
2013-7-9,93.8,81.2,68.9,76.0,72.1,67.0,98,76,52,30.08,29.95,11,1,11,0.00
2013-7-10,92.4,82.1,73.2,74.0,70.6,66.0,87,70,44,29.98,29.86,9,1,13,0.14
2013-7-11,85.4,75.4,62.5,73.0,65.5,57.0,91,73,43,29.99,29.90,4,1,14,0.00
2013-7-12,83.6,69.7,59.1,63.0,58.0,53.0,90,69,40,30.06,29.98,7,1,13,0.00
2013-7-13,84.7,70.7,56.6,64.0,58.8,54.0,90,69,38,30.04,29.97,5,1,10,0.00
2013-7-14,72.2,65.4,62.8,69.0,62.2,59.0,90,89,86,30.11,30.01,0,0,2,0.00
2013-7-15,87.5,76.6,68.6,74.0,69.7,66.0,91,80,59,30.21,30.10,6,0,11,0.01
2013-7-16,90.6,78.0,66.1,73.0,68.6,63.0,90,75,51,30.29,30.20,4,0,9,0.00
2013-7-17,95.0,80.8,68.5,74.0,70.1,65.0,90,72,43,30.30,30.15,2,0,9,0.00
2013-7-18,90.0,79.3,70.4,77.0,71.2,67.0,90,77,53,30.18,30.02,6,0,8,0.00
2013-7-19,91.8,79.0,66.8,71.0,68.7,64.0,90,73,47,30.05,29.90,4,1,11,0.00
2013-7-20,92.2,79.8,68.9,72.0,68.9,65.0,90,71,46,29.95,29.80,5,1,13,0.00
2013-7-21,91.0,75.4,68.7,73.0,68.3,65.0,90,80,49,29.94,29.83,12,1,15,1.23
2013-7-22,87.6,76.7,70.6,74.0,71.7,68.0,95,85,64,29.87,29.80,5,1,11,1.72
2013-7-23,91.0,79.0,69.2,74.0,70.6,66.0,93,77,53,29.90,29.76,11,2,19,0.04
2013-7-24,83.4,72.4,62.2,70.0,65.2,59.0,95,79,50,29.97,29.82,4,1,9,0.00
2013-7-25,82.3,69.2,57.9,64.0,60.0,56.0,95,75,46,30.07,29.96,6,1,11,0.00
2013-7-26,81.8,69.7,55.8,69.0,61.9,54.0,95,78,49,30.06,29.95,7,0,7,0.00
2013-7-27,84.3,72.2,59.8,70.0,65.0,57.0,94,79,55,29.99,29.87,6,1,9,0.01
2013-7-28,80.4,66.5,51.6,61.0,55.5,50.0,95,71,41,30.06,29.97,3,0,7,0.00
2013-7-29,77.6,67.1,57.2,67.0,60.8,55.0,95,81,55,30.16,30.05,3,0,5,0.00
2013-7-30,72.3,67.7,62.5,71.0,65.9,60.0,95,94,91,30.15,30.02,5,0,6,0.42
2013-7-31,87.5,75.0,67.4,76.0,70.8,66.0,96,87,66,30.02,29.92,4,0,8,0.26
2013-8-1,88.1,74.3,63.9,70.0,67.0,61.0,95,79,48,30.04,29.96,5,0,8,0.00
2013-8-2,85.7,71.9,58.8,71.0,64.7,57.0,95,80,51,30.02,29.94,5,0,6,0.00
2013-8-3,83.3,73.8,67.2,75.0,70.4,65.0,94,89,73,30.05,29.91,3,0,9,0.91
2013-8-4,80.6,72.4,65.9,70.0,65.4,63.0,95,80,56,30.12,30.03,4,0,8,0.00
2013-8-5,73.5,68.8,65.0,68.0,65.1,63.0,93,88,74,30.08,29.91,1,0,6,0.02
2013-8-6,81.8,74.5,69.0,76.0,71.2,67.0,95,89,80,29.95,29.86,3,0,8,0.00
2013-8-7,85.6,74.5,68.4,77.0,71.4,66.0,95,90,72,29.93,29.84,11,1,16,1.02
2013-8-8,84.0,73.7,67.6,77.0,71.0,66.0,96,91,74,29.96,29.87,2,0,10,0.16
2013-8-9,86.8,76.3,71.0,77.0,70.7,-99.9,96,85,69,30.02,29.90,4,-12,9,0.06
2013-8-10,83.1,74.8,70.8,75.0,71.8,69.0,95,90,74,30.09,29.99,1,0,5,0.54
2013-8-11,86.8,77.0,69.1,77.0,72.4,67.0,95,86,66,30.11,30.02,3,0,5,0.00
2013-8-12,83.4,74.8,71.2,76.0,71.8,69.0,95,90,77,30.05,29.89,5,0,12,0.52
2013-8-13,84.3,75.1,65.1,72.0,68.6,62.0,95,81,55,30.03,29.90,4,1,9,0.01
2013-8-14,74.8,64.5,55.2,62.0,55.3,53.0,92,74,49,30.13,30.03,9,1,15,0.00
2013-8-15,77.8,63.3,52.1,61.0,55.6,50.0,95,78,48,30.11,30.02,5,1,10,0.00
2013-8-16,76.4,67.0,57.3,66.0,61.4,55.0,94,83,69,30.09,30.03,5,1,9,0.00
2013-8-17,75.2,67.4,63.1,69.0,64.5,61.0,95,90,79,30.14,30.04,7,0,11,1.21
2013-8-18,75.4,68.5,63.2,70.0,65.7,61.0,95,91,77,30.14,30.05,3,0,5,0.01
2013-8-19,85.9,70.9,61.8,72.0,66.1,60.0,96,86,58,30.11,30.01,5,0,7,0.01
2013-8-20,89.0,73.8,62.8,75.0,68.3,61.0,96,84,55,30.09,30.01,2,0,5,0.00
2013-8-21,89.9,75.3,64.7,74.0,68.8,63.0,96,82,53,30.13,30.03,3,0,6,0.00
2013-8-22,92.3,77.2,65.1,77.0,70.2,63.0,96,81,49,30.11,29.99,4,0,6,0.00
2013-8-23,92.1,75.5,67.3,78.0,70.8,66.0,95,86,57,30.06,29.99,8,0,13,0.67
2013-8-24,86.7,74.8,65.6,74.0,68.6,64.0,96,82,56,30.17,30.06,7,0,9,0.00
2013-8-25,89.1,74.8,64.4,77.0,69.7,63.0,96,85,58,30.25,30.17,4,0,10,0.00
2013-8-26,89.4,76.1,66.6,75.0,70.0,65.0,95,82,57,30.24,30.10,5,1,9,0.00
2013-8-27,88.8,75.4,65.3,75.0,69.5,64.0,95,83,61,30.11,30.01,5,1,11,0.00
2013-8-28,93.4,77.2,66.5,76.0,69.4,65.0,95,79,48,30.05,29.98,5,1,10,0.00
2013-8-29,95.4,79.5,68.5,79.0,71.7,67.0,95,79,48,30.02,29.93,3,0,8,0.00
2013-8-30,95.6,79.9,68.5,79.0,72.2,67.0,95,79,48,29.97,29.85,3,0,8,0.00
2013-8-31,93.9,81.7,71.7,78.0,73.7,69.0,94,78,56,29.88,29.76,5,1,9,0.00
2013-9-1,81.5,75.0,69.2,74.0,70.8,67.0,94,87,74,29.87,29.75,7,1,17,0.27
2013-9-2,87.8,75.4,65.8,77.0,69.5,63.0,95,83,55,29.90,29.82,6,0,8,0.00
2013-9-3,85.4,70.6,60.5,68.0,63.3,59.0,95,80,49,30.04,29.90,4,0,8,0.00
2013-9-4,83.2,67.8,57.1,66.0,60.8,55.0,95,80,47,30.14,30.04,4,0,7,0.01
2013-9-5,82.3,67.4,54.2,68.0,60.9,53.0,95,81,53,30.18,30.11,5,0,7,0.01
2013-9-6,86.9,71.6,60.7,71.0,65.1,59.0,95,81,50,30.16,30.04,4,0,7,0.00
2013-9-7,89.2,72.3,59.2,73.0,65.4,58.0,95,81,52,30.07,29.95,5,0,9,0.00
2013-9-8,88.1,75.2,62.7,77.0,69.3,61.0,95,83,62,29.97,29.89,2,0,5,0.00
2013-9-9,92.4,79.5,70.8,77.0,72.0,69.0,95,79,53,30.00,29.92,4,0,9,0.00
2013-9-10,91.4,78.9,71.0,77.0,72.4,69.0,95,81,61,30.11,30.00,3,0,8,0.00
2013-9-11,93.5,75.7,67.1,79.0,70.0,65.0,95,84,56,30.14,30.04,3,0,10,0.82
2013-9-12,87.9,75.5,65.6,76.0,70.4,63.0,96,85,66,30.04,29.91,3,0,8,0.00
2013-9-13,74.9,64.9,53.7,63.0,56.8,52.0,92,77,50,30.05,29.97,8,1,13,0.00
2013-9-14,72.6,58.8,49.2,56.0,50.5,47.0,95,77,46,30.14,30.04,6,0,10,0.00
2013-9-15,82.2,62.1,46.3,63.0,53.9,44.0,95,78,42,30.10,30.04,5,1,11,0.00
2013-9-16,74.3,65.8,57.9,66.0,61.5,56.0,95,86,72,30.18,30.08,5,0,9,0.00
2013-9-17,80.5,68.2,60.7,69.0,63.0,59.0,94,84,61,30.19,30.07,6,1,8,0.00
2013-9-18,84.9,72.6,63.1,73.0,67.8,61.0,95,85,66,30.11,30.00,6,0,12,0.00
2013-9-19,85.7,74.6,68.1,75.0,69.5,66.0,94,85,65,30.07,29.93,6,1,13,0.00
2013-9-20,80.2,71.5,66.8,72.0,67.5,65.0,95,87,74,29.96,29.81,9,1,10,1.52
2013-9-21,75.5,63.2,52.0,66.0,55.3,50.0,95,77,44,29.90,29.80,6,1,11,0.08
2013-9-22,73.9,59.1,47.8,58.0,52.0,46.0,95,80,49,29.98,29.90,9,1,11,0.02
2013-9-23,75.6,59.5,45.9,62.0,53.4,44.0,95,82,52,30.01,29.92,5,0,9,0.00
2013-9-24,73.9,63.6,52.0,69.0,60.7,50.0,95,90,80,29.95,29.81,2,0,8,0.42
2013-9-25,79.3,66.9,57.9,69.0,63.0,56.0,96,88,66,29.86,29.79,5,0,9,0.01
2013-9-26,80.9,66.8,57.8,68.0,61.7,56.0,96,85,55,30.01,29.85,4,0,8,0.00
2013-9-27,78.6,64.0,52.2,63.0,57.3,51.0,96,81,48,30.11,30.01,5,0,8,0.01
2013-9-28,80.5,66.3,56.3,62.0,58.3,55.0,95,78,46,30.13,30.02,8,1,15,0.00
2013-9-29,66.9,63.3,61.7,62.0,60.3,58.0,95,90,76,30.05,29.97,2,0,8,0.71
2013-9-30,68.6,65.1,63.0,64.0,63.1,62.0,96,93,85,30.00,29.94,4,0,9,0.01
2013-10-1,73.1,67.7,63.2,70.0,65.6,62.0,96,92,84,30.06,29.97,3,0,6,0.02
2013-10-2,79.6,69.4,63.3,73.0,66.8,62.0,96,91,74,30.08,30.01,9,0,13,0.17
2013-10-3,82.6,71.2,65.0,70.0,65.8,64.0,96,84,57,30.05,29.94,6,0,11,0.01
2013-10-4,83.0,72.7,65.5,75.0,69.0,64.0,95,88,71,30.04,29.95,7,0,10,0.00
2013-10-5,80.3,72.2,66.5,72.0,69.0,65.0,96,90,71,30.00,29.84,6,1,12,2.32
2013-10-6,67.7,59.5,47.6,66.0,52.9,45.0,95,80,49,29.96,29.81,10,2,22,0.83
2013-10-7,67.4,52.9,44.1,53.0,46.8,42.0,95,81,53,30.14,29.92,5,1,12,0.00
2013-10-8,68.9,54.0,43.3,53.0,46.4,42.0,95,78,44,30.20,30.10,9,1,15,0.00
2013-10-9,75.0,59.2,45.9,66.0,55.0,44.0,96,87,66,30.17,30.08,4,0,7,0.00
2013-10-10,77.3,63.6,55.6,66.0,59.2,54.0,96,86,61,30.15,30.01,4,0,6,0.00
2013-10-11,79.4,63.1,52.4,65.0,57.1,51.0,96,83,49,30.06,29.96,3,0,9,0.00
2013-10-12,73.5,62.8,52.4,67.0,59.2,51.0,96,88,73,30.13,29.99,4,0,6,0.00
2013-10-13,75.7,61.9,49.4,60.0,54.5,47.0,95,78,47,30.28,30.13,5,0,10,0.00
2013-10-14,73.4,59.1,46.9,62.0,54.0,45.0,94,84,62,30.27,30.08,5,0,9,0.00
2013-10-15,70.4,64.9,59.4,65.0,62.3,58.0,95,91,79,30.07,29.93,6,1,12,0.08
2013-10-16,65.4,57.5,47.9,64.0,53.8,46.0,94,87,73,30.01,29.92,3,0,7,0.05
2013-10-17,62.6,52.5,43.3,52.0,47.5,42.0,95,84,59,30.01,29.95,5,1,12,0.18
2013-10-18,69.2,52.5,39.8,53.0,46.1,38.0,96,81,43,30.07,29.95,4,0,11,0.00
2013-10-19,56.7,48.7,37.7,52.0,43.8,36.0,94,84,56,30.06,29.89,7,1,10,0.18
2013-10-20,64.1,47.4,35.5,47.0,40.2,34.0,95,79,44,30.10,29.99,9,1,15,0.00
2013-10-21,65.9,51.9,37.7,54.0,45.3,36.0,95,80,54,30.05,29.96,6,1,15,0.15
2013-10-22,61.2,48.7,35.8,48.0,40.9,34.0,95,77,40,30.07,29.85,10,1,11,0.04
2013-10-23,51.9,44.5,40.1,43.0,37.2,33.0,92,77,50,30.14,29.91,9,1,13,0.00
2013-10-24,52.9,42.5,31.3,41.0,35.4,27.0,92,78,43,30.41,30.12,7,1,13,0.00
2013-10-25,50.6,36.2,26.8,33.0,28.2,25.0,94,76,40,30.55,30.33,6,0,9,0.00
2013-10-26,58.7,44.1,28.0,47.0,35.9,26.0,94,75,50,30.32,30.07,10,1,13,0.00
2013-10-27,64.2,50.1,37.1,50.0,42.8,35.0,95,78,45,30.12,30.03,4,0,5,0.00
2013-10-28,69.2,55.0,47.1,55.0,49.7,45.0,95,83,54,30.24,30.06,4,0,6,0.00
2013-10-29,62.2,53.8,44.2,60.0,51.9,42.0,95,93,87,30.26,30.10,3,0,6,0.01
2013-10-30,75.4,68.1,60.3,65.0,62.1,59.0,96,81,68,30.13,29.96,11,2,13,0.00
2013-10-31,69.4,65.0,57.4,65.0,61.5,55.0,93,88,77,29.95,29.47,15,4,25,0.67
2013-11-1,68.7,55.1,44.0,55.0,48.0,42.0,94,79,45,29.85,29.67,12,2,20,0.00
2013-11-2,58.6,46.0,36.3,45.0,40.2,34.0,95,82,56,30.21,29.85,7,1,14,0.00
2013-11-3,57.8,42.3,30.7,43.0,34.8,29.0,95,78,40,30.33,30.20,6,0,10,0.00
2013-11-4,60.3,49.8,38.4,48.0,42.6,37.0,94,78,50,30.31,30.21,11,1,12,0.00
2013-11-5,65.6,55.9,47.1,51.0,46.4,43.0,92,72,52,30.33,30.14,6,0,13,0.01
2013-11-6,59.0,54.2,41.7,58.0,49.0,40.0,97,84,61,30.23,30.01,9,2,16,0.34
2013-11-7,54.0,40.7,31.8,39.0,33.9,30.0,98,80,43,30.39,30.24,7,1,12,0.00
2013-11-8,58.9,40.6,27.7,42.0,33.5,27.0,98,80,39,30.41,30.22,5,0,9,0.00
2013-11-9,63.2,46.1,33.2,44.0,38.4,32.0,97,78,45,30.25,30.15,12,2,19,0.00
2013-11-10,61.1,43.8,31.3,45.0,34.7,30.0,98,76,34,30.39,30.25,7,1,12,0.00
2013-11-11,65.1,47.7,29.0,45.0,35.7,28.0,98,69,33,30.32,30.16,9,1,18,0.00
2013-11-12,46.2,35.6,25.6,42.0,26.3,20.0,90,71,42,30.70,30.31,11,3,20,0.01
2013-11-13,44.6,29.6,18.4,27.0,22.0,17.0,96,76,38,30.73,30.44,5,0,8,0.00
2013-11-14,55.7,36.2,21.0,29.0,23.5,20.0,96,67,26,30.44,30.17,7,1,15,0.00
2013-11-15,51.9,46.5,32.4,50.0,39.2,25.0,97,77,52,30.17,30.04,4,1,11,0.03
2013-11-16,65.7,59.4,52.1,62.0,56.3,50.0,93,89,83,30.04,29.80,12,3,22,0.00
2013-11-17,74.5,65.9,46.1,69.0,58.0,33.0,95,78,32,29.95,29.56,15,5,23,0.40
2013-11-18,61.6,46.0,30.7,45.0,36.0,28.0,95,72,32,30.28,29.95,9,1,13,0.00
2013-11-19,48.2,37.7,29.5,34.0,30.4,28.0,96,77,49,30.34,30.21,8,1,11,0.00
2013-11-20,58.9,40.3,25.2,40.0,32.7,24.0,97,78,43,30.23,30.11,8,1,12,0.00
2013-11-21,63.9,54.8,48.3,56.0,48.5,39.0,96,80,64,30.23,30.14,7,1,12,0.15
2013-11-22,58.3,49.2,40.8,57.0,47.5,38.0,97,93,87,30.43,30.16,8,2,18,0.28
2013-11-23,45.0,36.2,24.2,37.0,25.9,15.0,90,68,35,30.66,30.41,10,4,19,0.00
2013-11-24,32.7,25.8,17.4,19.0,15.0,13.0,85,65,44,30.73,30.49,8,2,14,0.00
2013-11-25,39.1,32.8,28.0,32.0,24.4,18.0,95,73,50,30.47,30.19,8,1,12,0.00
2013-11-26,38.3,34.9,30.3,34.0,30.8,20.0,96,85,64,30.19,29.99,16,2,18,0.10
2013-11-27,32.5,23.9,14.5,20.0,13.6,11.0,92,66,42,30.40,30.13,11,3,18,0.00
2013-11-28,41.9,26.3,13.6,24.0,18.5,12.0,93,75,46,30.51,30.35,10,2,16,0.00
2013-11-29,51.6,31.3,18.2,33.0,24.8,17.0,97,80,45,30.60,30.46,4,0,9,0.00
2013-11-30,56.3,38.1,21.4,33.0,26.5,20.0,97,68,33,30.45,30.21,11,2,15,0.00
2013-12-1,55.1,46.7,39.7,41.0,36.3,31.0,90,68,55,30.20,29.93,4,1,8,0.00
2013-12-2,60.2,47.3,39.6,50.0,42.6,38.0,95,84,67,29.92,29.71,4,0,8,0.00
2013-12-3,63.4,50.0,38.9,54.0,46.4,38.0,98,88,65,29.77,29.69,7,1,11,0.00
2013-12-4,72.8,64.2,43.8,62.0,59.0,43.0,98,84,66,29.78,29.65,13,3,22,0.00
2013-12-5,67.0,42.5,30.1,62.0,39.0,28.0,94,87,79,30.22,29.77,10,3,15,0.31
2013-12-6,31.1,25.8,22.1,30.0,23.9,20.0,94,92,90,30.50,30.14,7,1,13,0.12
2013-12-7,24.6,20.0,15.8,20.0,16.6,12.0,90,86,81,30.66,30.41,8,3,14,0.00
2013-12-8,32.4,28.3,21.2,31.0,27.0,19.0,96,94,91,30.41,30.05,11,2,12,0.02
2013-12-9,32.4,28.4,23.0,29.0,25.4,19.0,96,88,76,30.32,30.14,9,1,12,0.01
2013-12-10,32.7,25.5,18.3,25.0,21.1,17.0,94,83,72,30.42,30.25,10,2,12,0.05
2013-12-11,37.5,25.4,13.5,30.0,21.0,12.0,96,84,72,30.64,30.40,10,2,14,0.13
2013-12-12,31.9,20.5,9.9,19.0,13.5,8.0,92,76,42,30.66,30.40,3,0,6,0.04
2013-12-13,39.7,28.3,13.4,33.0,23.0,12.0,96,82,56,30.40,29.99,4,0,10,0.27
2013-12-14,38.1,35.2,32.3,38.0,33.8,30.0,98,94,89,30.11,29.82,8,2,16,0.77
2013-12-15,32.2,31.1,29.7,30.0,27.9,26.0,92,88,84,30.26,30.11,9,3,15,0.00
2013-12-16,50.3,40.1,31.8,39.0,34.7,30.0,96,81,63,30.16,30.06,10,3,15,0.00
2013-12-17,45.6,33.6,23.3,37.0,30.1,22.0,97,87,67,30.32,30.09,7,1,10,0.00
2013-12-18,50.9,36.1,18.6,33.0,24.8,17.0,97,68,33,30.37,30.10,10,2,12,0.00
2013-12-19,60.1,52.9,43.0,50.0,43.8,33.0,79,72,61,30.12,29.93,11,4,18,0.00
2013-12-20,65.0,61.4,57.6,61.0,57.1,50.0,95,86,74,29.92,29.79,13,5,22,0.08
2013-12-21,64.9,57.3,41.8,64.0,56.1,41.0,98,96,85,29.80,29.46,12,3,26,2.14
2013-12-22,50.0,42.8,35.0,48.0,41.2,32.0,98,94,86,30.23,29.66,8,3,14,0.01
2013-12-23,35.0,31.3,26.7,32.0,26.6,22.0,90,83,71,30.52,30.23,9,2,12,0.00
2013-12-24,26.5,21.3,15.7,21.0,15.0,11.0,92,78,54,30.66,30.45,7,1,13,0.00
2013-12-25,42.2,28.4,15.4,30.0,22.4,14.0,96,80,55,30.45,30.30,9,1,13,0.00
2013-12-26,44.9,30.3,19.6,33.0,25.6,18.0,97,84,54,30.46,30.34,4,0,7,0.00
2013-12-27,52.1,31.9,19.2,35.0,26.5,18.0,97,82,52,30.48,30.36,5,1,10,0.00
2013-12-28,48.4,35.7,22.6,38.0,30.0,21.0,98,81,51,30.36,30.00,3,0,5,0.05
2013-12-29,50.6,39.2,27.6,44.0,35.9,23.0,97,88,74,30.23,29.93,10,3,15,0.15
2013-12-30,31.7,25.0,17.8,23.0,19.5,16.0,94,80,63,30.35,30.23,7,1,12,0.00
2013-12-31,42.3,28.3,18.0,28.0,22.4,16.0,95,80,52,30.47,30.31,5,1,9,0.00
2014-1-1,49.2,34.7,18.9,38.0,28.7,18.0,97,81,51,30.31,29.97,10,1,12,0.02
2014-1-2,39.5,27.1,16.9,39.0,22.6,12.0,97,83,70,30.48,29.92,15,5,20,0.01